Time;durP1;ratioP1;P1;durP2;ratioP2;P2;SDS_P1;SDS_P2;PMS_P1;PMS_P2;Temp;Humidity;BMP_temperature;BMP_pressure;BME280_temperature;BME280_humidity;BME280_pressure;Samples;Min_cycle;Max_cycle;Signal;HPM_P1;HPM_P2
2023/11/10 00:00:26;;;;;;;0.00;0.00;;;19.90;49.30;;;;;;5012163;28;20576;-57
2023/11/10 00:02:59;;;;;;;0.05;0.05;;;19.90;49.20;;;;;;5012392;28;20204;-57
2023/11/10 00:05:29;;;;;;;0.10;0.10;;;20.00;49.20;;;;;;5012190;28;20623;-53
2023/11/10 00:08:00;;;;;;;0.05;0.05;;;20.00;49.10;;;;;;5012052;28;20201;-54
2023/11/10 00:10:31;;;;;;;0.00;0.00;;;20.00;49.10;;;;;;5012140;28;20278;-56
2023/11/10 00:13:01;;;;;;;0.00;0.00;;;20.00;48.90;;;;;;5012014;28;20200;-57
2023/11/10 00:15:32;;;;;;;0.00;0.00;;;20.00;48.90;;;;;;5012413;28;20685;-54
2023/11/10 00:18:05;;;;;;;0.10;0.10;;;20.10;49.10;;;;;;5012140;28;20251;-55
2023/11/10 00:20:36;;;;;;;0.03;0.03;;;20.10;49.00;;;;;;5012209;28;20201;-57
2023/11/10 00:23:09;;;;;;;0.00;0.00;;;20.20;49.10;;;;;;5012154;28;20576;-54
2023/11/10 00:25:40;;;;;;;0.00;0.00;;;20.20;49.10;;;;;;5008276;28;20649;-52
2023/11/10 00:28:12;;;;;;;0.00;0.00;;;20.20;49.30;;;;;;5011134;28;20247;-53
2023/11/10 00:30:42;;;;;;;0.00;0.00;;;20.30;49.60;;;;;;5008257;28;20278;-51
2023/11/10 00:33:15;;;;;;;0.00;0.00;;;20.30;49.80;;;;;;4991884;28;20197;-54
2023/11/10 00:35:45;;;;;;;0.00;0.00;;;20.30;49.90;;;;;;5004953;28;20275;-51
2023/11/10 00:38:16;;;;;;;0.00;0.00;;;20.40;50.00;;;;;;5021459;28;20274;-52
2023/11/10 00:40:46;;;;;;;0.00;0.00;;;20.40;50.00;;;;;;5014049;28;20201;-53
2023/11/10 00:43:17;;;;;;;0.00;0.00;;;20.40;50.00;;;;;;5023006;28;20613;-54
2023/11/10 00:45:48;;;;;;;0.00;0.00;;;20.50;50.00;;;;;;5011227;28;20209;-54
2023/11/10 00:48:20;;;;;;;0.00;0.00;;;20.50;50.00;;;;;;5012086;28;20200;-53
2023/11/10 00:50:51;;;;;;;0.00;0.00;;;20.50;50.00;;;;;;5011051;28;20225;-54
2023/11/10 00:53:22;;;;;;;0.10;0.10;;;20.50;50.00;;;;;;5010881;28;20201;-52
2023/11/10 00:55:53;;;;;;;0.00;0.00;;;20.60;50.00;;;;;;5011408;28;20758;-55
2023/11/10 00:58:24;;;;;;;0.00;0.00;;;20.60;49.80;;;;;;5011006;28;20189;-50
2023/11/10 01:00:54;;;;;;;0.00;0.00;;;20.60;49.70;;;;;;5011003;28;20204;-54
2023/11/10 01:03:27;;;;;;;0.00;0.00;;;20.70;49.70;;;;;;5010854;28;20197;-51
2023/11/10 01:05:57;;;;;;;0.00;0.00;;;20.60;49.50;;;;;;5011092;28;20224;-55
2023/11/10 01:08:28;;;;;;;0.00;0.00;;;20.70;49.20;;;;;;5022662;28;20334;-55
2023/11/10 01:10:59;;;;;;;0.05;0.05;;;20.70;49.10;;;;;;5017120;28;20232;-55
2023/11/10 01:13:30;;;;;;;0.00;0.00;;;20.70;49.00;;;;;;5011376;28;20663;-51
2023/11/10 01:16:01;;;;;;;0.00;0.00;;;20.70;49.10;;;;;;5014317;28;20221;-54
2023/11/10 01:18:33;;;;;;;0.00;0.00;;;20.80;49.20;;;;;;5014926;28;20193;-55
2023/11/10 01:21:04;;;;;;;0.08;0.08;;;20.80;49.20;;;;;;5013997;28;20216;-53
2023/11/10 01:23:35;;;;;;;0.08;0.08;;;20.80;49.20;;;;;;5014720;28;20200;-53
2023/11/10 01:26:06;;;;;;;0.00;0.00;;;20.80;49.20;;;;;;5014482;28;20243;-54
2023/11/10 01:28:37;;;;;;;0.00;0.00;;;20.90;49.20;;;;;;5014383;28;20288;-55
2023/11/10 01:31:08;;;;;;;0.00;0.00;;;20.90;49.20;;;;;;5013849;28;20235;-52
2023/11/10 01:33:41;;;;;;;0.10;0.10;;;20.90;49.20;;;;;;5014202;28;20193;-54
2023/11/10 01:36:12;;;;;;;0.00;0.00;;;20.90;49.10;;;;;;5013801;28;20225;-52
2023/11/10 01:38:42;;;;;;;0.00;0.00;;;20.90;49.00;;;;;;5014730;28;20196;-54
2023/11/10 01:41:15;;;;;;;0.00;0.00;;;21.00;49.10;;;;;;5013916;28;20576;-54
2023/11/10 01:43:46;;;;;;;0.00;0.00;;;21.00;48.90;;;;;;5018213;28;20287;-50
2023/11/10 01:46:46;;;;;;;0.00;0.00;;;21.00;48.70;;;;;;5009225;28;20278;-53
2023/11/10 01:49:21;;;;;;;0.00;0.00;;;21.00;48.40;;;;;;5013669;28;20296;-55
2023/11/10 01:51:53;;;;;;;0.00;0.00;;;21.00;48.30;;;;;;5014449;28;20231;-52
2023/11/10 01:54:25;;;;;;;0.00;0.00;;;21.10;48.20;;;;;;5014546;28;20204;-53
2023/11/10 01:56:56;;;;;;;0.00;0.00;;;21.10;48.10;;;;;;5020550;28;20683;-50
2023/11/10 01:59:27;;;;;;;0.10;0.10;;;21.10;48.20;;;;;;5034390;28;20223;-56
2023/11/10 02:01:58;;;;;;;0.10;0.10;;;21.10;48.10;;;;;;5034564;28;20211;-55
2023/11/10 02:04:30;;;;;;;0.00;0.00;;;21.20;48.00;;;;;;5034474;28;20594;-48
2023/11/10 02:07:01;;;;;;;0.00;0.00;;;21.10;47.90;;;;;;5034112;28;20220;-55
2023/11/10 02:09:32;;;;;;;0.00;0.00;;;21.20;47.90;;;;;;5034459;28;20203;-54
2023/11/10 02:12:03;;;;;;;0.10;0.10;;;21.20;47.80;;;;;;5020443;28;20660;-51
2023/11/10 02:14:35;;;;;;;0.00;0.00;;;21.20;47.70;;;;;;5013712;28;20232;-52
2023/11/10 02:17:06;;;;;;;0.00;0.00;;;21.20;47.70;;;;;;5013957;28;20221;-53
2023/11/10 02:19:39;;;;;;;0.00;0.00;;;21.20;47.70;;;;;;5014499;28;20201;-52
2023/11/10 02:22:10;;;;;;;0.00;0.00;;;21.30;47.80;;;;;;5014046;28;20204;-53
2023/11/10 02:24:44;;;;;;;0.00;0.00;;;21.30;47.70;;;;;;5012764;28;20197;-54
2023/11/10 02:27:16;;;;;;;0.10;0.10;;;21.30;47.40;;;;;;5013864;28;20220;-53
2023/11/10 02:29:47;;;;;;;0.00;0.00;;;21.30;47.30;;;;;;5011158;28;20193;-49
2023/11/10 02:32:18;;;;;;;0.08;0.08;;;21.30;47.10;;;;;;5012890;28;20231;-54
2023/11/10 02:34:51;;;;;;;0.00;0.00;;;21.30;47.10;;;;;;5012970;28;20612;-54
2023/11/10 02:37:21;;;;;;;0.00;0.00;;;21.30;47.00;;;;;;5000498;28;20218;-54
2023/11/10 02:39:52;;;;;;;0.00;0.00;;;21.40;46.90;;;;;;5027528;28;20371;-50
2023/11/10 02:42:25;;;;;;;0.00;0.00;;;21.40;46.90;;;;;;5012954;28;20571;-48
2023/11/10 02:44:55;;;;;;;0.00;0.00;;;21.40;47.00;;;;;;5012911;28;20200;-54
2023/11/10 02:47:26;;;;;;;0.00;0.00;;;21.40;47.00;;;;;;5013380;28;20653;-50
2023/11/10 02:49:57;;;;;;;0.00;0.00;;;21.40;47.00;;;;;;5008661;28;20201;-53
2023/11/10 02:52:27;;;;;;;0.00;0.00;;;21.50;47.00;;;;;;5013705;28;20684;-52
2023/11/10 02:55:06;;;;;;;0.00;0.00;;;21.50;46.90;;;;;;5013358;28;20193;-53
2023/11/10 02:57:38;;;;;;;0.00;0.00;;;21.50;46.90;;;;;;5012457;28;20209;-54
2023/11/10 03:00:10;;;;;;;0.00;0.00;;;21.50;46.80;;;;;;5013468;28;20197;-52
2023/11/10 03:02:40;;;;;;;0.10;0.10;;;21.50;46.90;;;;;;5012696;28;20247;-52
2023/11/10 03:05:11;;;;;;;0.10;0.10;;;21.50;46.90;;;;;;5013369;28;20189;-50
2023/11/10 03:07:42;;;;;;;0.00;0.00;;;21.60;46.90;;;;;;5012637;28;20243;-50
2023/11/10 03:10:13;;;;;;;0.10;0.10;;;21.60;46.80;;;;;;5013025;28;20185;-52
2023/11/10 03:12:45;;;;;;;0.00;0.00;;;21.60;46.70;;;;;;5012415;28;20211;-50
2023/11/10 03:15:17;;;;;;;0.00;0.00;;;21.60;46.70;;;;;;5011481;28;20247;-46
2023/11/10 03:17:47;;;;;;;0.00;0.00;;;21.70;47.20;;;;;;5030025;28;20275;-52
2023/11/10 03:20:19;;;;;;;0.00;0.00;;;21.70;46.50;;;;;;5014698;28;20196;-53
2023/11/10 03:22:50;;;;;;;0.00;0.00;;;21.70;46.60;;;;;;5011473;28;20304;-49
2023/11/10 03:25:21;;;;;;;0.10;0.10;;;21.70;46.50;;;;;;5010372;28;20193;-49
2023/11/10 03:27:54;;;;;;;0.00;0.00;;;21.70;46.50;;;;;;5011172;28;20212;-51
2023/11/10 03:30:24;;;;;;;0.00;0.00;;;21.70;46.40;;;;;;5011127;28;20785;-51
2023/11/10 03:32:55;;;;;;;0.00;0.00;;;21.70;46.30;;;;;;5004029;28;20205;-51
2023/11/10 03:35:26;;;;;;;0.00;0.00;;;21.70;46.30;;;;;;5010595;28;20233;-51
2023/11/10 03:37:56;;;;;;;0.00;0.00;;;21.70;46.20;;;;;;5003788;28;20200;-58
2023/11/10 03:40:28;;;;;;;0.00;0.00;;;21.70;45.90;;;;;;5010493;28;20489;-48
2023/11/10 03:43:00;;;;;;;0.00;0.00;;;21.70;44.80;;;;;;5003798;28;20205;-50
2023/11/10 03:45:31;;;;;;;0.00;0.00;;;21.60;44.40;;;;;;5010745;28;20221;-53
2023/11/10 03:48:02;;;;;;;0.05;0.05;;;21.60;44.60;;;;;;5018126;28;20207;-51
2023/11/10 03:50:32;;;;;;;0.00;0.00;;;21.50;44.90;;;;;;5013402;28;20656;-52
2023/11/10 03:53:03;;;;;;;0.00;0.00;;;21.50;45.30;;;;;;5010450;28;20204;-53
2023/11/10 03:55:33;;;;;;;0.00;0.00;;;21.50;45.50;;;;;;5010530;28;20209;-56
2023/11/10 03:58:06;;;;;;;0.00;0.00;;;21.50;45.50;;;;;;5011269;28;20645;-53
2023/11/10 04:00:37;;;;;;;0.00;0.00;;;21.50;45.50;;;;;;5009857;28;20216;-53
2023/11/10 04:03:08;;;;;;;0.00;0.00;;;21.50;45.70;;;;;;5010735;28;20200;-50
2023/11/10 04:05:39;;;;;;;0.10;0.10;;;21.50;45.80;;;;;;5009582;28;20719;-54
2023/11/10 04:08:09;;;;;;;0.10;0.10;;;21.50;45.80;;;;;;5010138;28;20200;-54
2023/11/10 04:10:41;;;;;;;0.00;0.00;;;21.60;45.60;;;;;;5009687;28;20200;-52
2023/11/10 04:13:14;;;;;;;0.10;0.10;;;21.60;45.60;;;;;;5010264;28;20201;-50
2023/11/10 04:15:44;;;;;;;0.00;0.00;;;21.60;45.50;;;;;;5009519;28;20220;-55
2023/11/10 04:18:16;;;;;;;0.00;0.00;;;21.60;45.60;;;;;;5009847;28;20204;-51
2023/11/10 04:20:46;;;;;;;0.00;0.00;;;21.70;45.80;;;;;;5010294;28;20216;-53
2023/11/10 04:23:17;;;;;;;0.00;0.00;;;21.70;45.80;;;;;;5010611;28;20231;-52
2023/11/10 04:25:48;;;;;;;0.00;0.00;;;21.70;45.80;;;;;;5008664;28;20606;-53
2023/11/10 04:28:20;;;;;;;0.10;0.10;;;21.70;45.80;;;;;;5010047;28;20235;-53
2023/11/10 04:30:51;;;;;;;0.00;0.00;;;21.80;45.80;;;;;;5009080;28;20204;-52
2023/11/10 04:33:22;;;;;;;0.00;0.00;;;21.80;45.80;;;;;;5010987;28;20200;-52
2023/11/10 04:35:53;;;;;;;0.00;0.00;;;21.80;45.80;;;;;;5011511;28;20256;-54
2023/11/10 04:38:23;;;;;;;0.00;0.00;;;21.80;45.80;;;;;;5011619;28;20205;-53
2023/11/10 04:40:56;;;;;;;0.10;0.10;;;21.90;45.80;;;;;;5025522;28;20196;-54
2023/11/10 04:43:28;;;;;;;0.00;0.00;;;21.90;45.80;;;;;;5010982;28;20200;-53
2023/11/10 04:45:59;;;;;;;0.00;0.00;;;21.90;45.60;;;;;;5011707;28;20228;-54
2023/11/10 04:48:29;;;;;;;0.00;0.00;;;21.90;45.60;;;;;;5010923;28;20193;-49
2023/11/10 04:51:00;;;;;;;0.00;0.00;;;22.00;45.60;;;;;;5011737;28;20256;-50
2023/11/10 04:53:31;;;;;;;0.00;0.00;;;22.00;45.50;;;;;;5011744;28;20192;-52
2023/11/10 04:56:02;;;;;;;0.00;0.00;;;22.00;45.50;;;;;;5011656;28;20232;-52
2023/11/10 04:58:34;;;;;;;0.05;0.05;;;22.00;45.60;;;;;;5011441;28;20724;-53
2023/11/10 05:01:07;;;;;;;0.00;0.00;;;22.00;45.60;;;;;;5011164;28;20566;-53
2023/11/10 05:03:38;;;;;;;0.00;0.00;;;22.10;45.70;;;;;;5011211;28;20736;-54
2023/11/10 05:06:09;;;;;;;0.00;0.00;;;22.10;45.50;;;;;;5006470;28;20220;-48
2023/11/10 05:08:40;;;;;;;0.00;0.00;;;22.10;45.40;;;;;;5005704;28;20680;-48
2023/11/10 05:11:11;;;;;;;0.10;0.10;;;22.10;45.20;;;;;;4999415;28;20688;-52
2023/11/10 05:13:44;;;;;;;0.00;0.00;;;22.00;45.10;;;;;;5005838;28;20201;-51
2023/11/10 05:16:16;;;;;;;0.00;0.00;;;22.00;45.10;;;;;;5009979;28;20279;-48
2023/11/10 05:18:46;;;;;;;0.00;0.00;;;22.10;45.20;;;;;;5009649;28;20561;-50
2023/11/10 05:21:17;;;;;;;0.00;0.00;;;22.00;45.10;;;;;;5010935;28;20212;-55
2023/11/10 05:23:48;;;;;;;0.10;0.10;;;22.00;45.30;;;;;;5004669;28;20228;-54
2023/11/10 05:26:18;;;;;;;0.00;0.00;;;22.00;45.30;;;;;;5007648;28;20564;-54
2023/11/10 05:28:51;;;;;;;0.00;0.00;;;22.00;45.40;;;;;;5009164;28;20620;-54
2023/11/10 05:31:22;;;;;;;0.00;0.00;;;22.00;45.30;;;;;;5009771;28;20657;-54
2023/11/10 05:33:55;;;;;;;0.00;0.00;;;22.00;45.40;;;;;;5009286;28;20197;-56
2023/11/10 05:36:27;;;;;;;0.00;0.00;;;22.00;45.30;;;;;;5009068;28;20308;-55
2023/11/10 05:38:57;;;;;;;0.00;0.00;;;22.00;45.20;;;;;;5009509;28;20197;-54
2023/11/10 05:41:28;;;;;;;0.00;0.00;;;22.00;45.10;;;;;;5014903;28;20201;-51
2023/11/10 05:44:01;;;;;;;0.10;0.10;;;22.00;45.10;;;;;;5009315;28;20212;-53
2023/11/10 05:46:32;;;;;;;0.00;0.00;;;22.00;45.00;;;;;;5008651;28;20267;-53
2023/11/10 05:49:02;;;;;;;0.00;0.00;;;22.00;45.00;;;;;;5009172;28;20215;-54
2023/11/10 05:51:33;;;;;;;0.00;0.00;;;22.00;45.00;;;;;;5009262;28;20232;-53
2023/11/10 05:54:03;;;;;;;0.00;0.00;;;22.00;45.00;;;;;;5013557;28;20215;-54
2023/11/10 05:56:34;;;;;;;0.00;0.00;;;22.00;45.00;;;;;;5013602;28;20233;-55
2023/11/10 05:59:08;;;;;;;0.00;0.00;;;22.00;45.00;;;;;;5010047;28;20196;-55
2023/11/10 06:01:38;;;;;;;0.03;0.03;;;22.00;44.90;;;;;;5012129;28;20201;-53
2023/11/10 06:04:09;;;;;;;0.00;0.00;;;22.00;44.80;;;;;;5012537;28;20224;-55
2023/11/10 06:06:41;;;;;;;0.10;0.10;;;22.00;45.00;;;;;;5012125;28;20216;-46
2023/11/10 06:09:12;;;;;;;0.00;0.00;;;22.00;45.10;;;;;;5005728;28;20742;-54
2023/11/10 06:11:42;;;;;;;0.00;0.00;;;22.00;45.10;;;;;;5012135;28;20216;-55
2023/11/10 06:14:16;;;;;;;0.00;0.00;;;22.00;45.10;;;;;;5013166;28;20585;-52
2023/11/10 06:16:47;;;;;;;0.00;0.00;;;22.00;45.10;;;;;;5011507;28;20217;-55
2023/11/10 06:19:18;;;;;;;0.00;0.00;;;22.00;45.10;;;;;;5012986;28;20197;-51
2023/11/10 06:21:49;;;;;;;0.00;0.00;;;22.00;45.10;;;;;;5012460;28;20565;-48
2023/11/10 06:24:20;;;;;;;0.00;0.00;;;22.00;45.10;;;;;;5013130;28;20302;-54
2023/11/10 06:26:51;;;;;;;0.08;0.08;;;22.00;45.00;;;;;;5012221;28;20243;-50
2023/11/10 06:29:23;;;;;;;0.00;0.00;;;22.00;44.90;;;;;;5009916;28;20228;-53
2023/11/10 06:31:54;;;;;;;0.00;0.00;;;22.00;44.80;;;;;;5011761;28;20696;-53
2023/11/10 06:34:24;;;;;;;0.00;0.00;;;22.00;44.80;;;;;;5012230;28;20669;-54
2023/11/10 06:36:55;;;;;;;0.10;0.10;;;22.00;44.80;;;;;;5011368;28;20243;-51
2023/11/10 06:39:29;;;;;;;0.00;0.00;;;22.00;44.80;;;;;;5012907;28;20201;-53
2023/11/10 06:42:00;;;;;;;0.00;0.00;;;22.00;44.80;;;;;;5018291;28;20193;-53
2023/11/10 06:44:33;;;;;;;0.00;0.00;;;21.90;44.70;;;;;;5032392;28;20224;-54
2023/11/10 06:47:03;;;;;;;0.00;0.00;;;21.90;44.70;;;;;;5029671;28;20224;-52
2023/11/10 06:49:34;;;;;;;0.08;0.08;;;21.90;44.70;;;;;;5030790;28;20207;-52
2023/11/10 06:52:05;;;;;;;0.00;0.00;;;21.90;44.70;;;;;;5026140;28;20224;-55
2023/11/10 06:54:35;;;;;;;0.10;0.10;;;21.90;44.70;;;;;;5032819;28;20202;-53
2023/11/10 06:57:06;;;;;;;0.00;0.00;;;21.90;44.70;;;;;;5019049;28;20224;-55
2023/11/10 06:59:39;;;;;;;0.00;0.00;;;21.90;44.80;;;;;;5022147;28;20661;-54
2023/11/10 07:02:12;;;;;;;0.00;0.00;;;21.80;44.80;;;;;;5025021;28;20200;-55
2023/11/10 07:04:43;;;;;;;0.00;0.00;;;21.80;44.80;;;;;;5030719;28;20283;-53
2023/11/10 07:07:14;;;;;;;0.00;0.00;;;21.80;44.90;;;;;;5018538;28;20208;-53
2023/11/10 07:09:44;;;;;;;0.00;0.00;;;21.80;44.90;;;;;;5028039;28;20206;-53
2023/11/10 07:12:15;;;;;;;0.00;0.00;;;21.80;44.90;;;;;;5027387;28;20239;-53
2023/11/10 07:14:48;;;;;;;0.05;0.05;;;21.70;44.90;;;;;;5029947;28;20246;-53
2023/11/10 07:17:18;;;;;;;0.10;0.10;;;21.70;44.90;;;;;;5029605;28;20216;-52
2023/11/10 07:19:49;;;;;;;0.03;0.03;;;21.70;44.90;;;;;;5030544;28;20196;-54
2023/11/10 07:22:19;;;;;;;0.00;0.00;;;21.70;44.90;;;;;;5012867;28;20207;-45
2023/11/10 07:24:50;;;;;;;0.03;0.03;;;21.60;44.90;;;;;;5026232;28;20203;-53
2023/11/10 07:27:21;;;;;;;0.00;0.00;;;21.60;44.90;;;;;;5014193;28;20296;-52
2023/11/10 07:29:54;;;;;;;0.10;0.10;;;21.60;44.90;;;;;;5021337;28;20203;-53
2023/11/10 07:32:25;;;;;;;0.10;0.10;;;21.60;44.90;;;;;;5018131;28;20224;-53
2023/11/10 07:34:56;;;;;;;0.00;0.00;;;21.60;45.00;;;;;;5012010;28;20193;-49
2023/11/10 07:37:27;;;;;;;0.00;0.00;;;21.60;45.00;;;;;;5019250;28;20232;-49
2023/11/10 07:39:58;;;;;;;0.00;0.00;;;21.50;44.90;;;;;;5025688;28;20232;-50
2023/11/10 07:42:28;;;;;;;0.00;0.00;;;21.50;45.00;;;;;;5013112;28;20443;-53
2023/11/10 07:45:01;;;;;;;0.00;0.00;;;21.50;45.10;;;;;;5026669;28;20193;-52
2023/11/10 07:47:31;;;;;;;0.03;0.03;;;21.40;45.00;;;;;;5023442;28;20553;-52
2023/11/10 07:50:02;;;;;;;0.00;0.00;;;21.50;45.10;;;;;;5011803;28;20653;-52
2023/11/10 07:52:33;;;;;;;0.00;0.00;;;21.40;45.10;;;;;;5012883;28;20240;-53
2023/11/10 07:55:04;;;;;;;0.10;0.10;;;21.40;45.20;;;;;;5026996;28;20429;-47
2023/11/10 07:57:35;;;;;;;0.00;0.00;;;21.40;45.10;;;;;;5018498;28;20232;-51
2023/11/10 08:00:09;;;;;;;0.10;0.10;;;21.40;45.10;;;;;;5005603;28;20192;-51
2023/11/10 08:02:39;;;;;;;0.00;0.00;;;21.40;45.10;;;;;;5009998;28;20193;-50
2023/11/10 08:05:10;;;;;;;0.10;0.10;;;21.30;45.10;;;;;;5005302;28;20722;-50
2023/11/10 08:07:41;;;;;;;0.00;0.00;;;21.30;45.20;;;;;;5014316;28;20216;-50
2023/11/10 08:10:12;;;;;;;0.00;0.00;;;21.30;45.20;;;;;;5014890;28;20224;-50
2023/11/10 08:12:42;;;;;;;0.00;0.00;;;21.30;45.30;;;;;;5012982;28;20228;-50
2023/11/10 08:15:15;;;;;;;0.00;0.00;;;21.20;45.20;;;;;;5010542;28;20189;-47
2023/11/10 08:17:46;;;;;;;0.00;0.00;;;21.20;45.20;;;;;;5010391;28;20217;-53
2023/11/10 08:20:18;;;;;;;0.00;0.00;;;21.20;45.20;;;;;;5003925;28;20193;-51
2023/11/10 08:22:49;;;;;;;0.00;0.00;;;21.20;45.30;;;;;;5012484;28;20203;-50
2023/11/10 08:25:20;;;;;;;0.10;0.10;;;21.20;45.30;;;;;;5003002;28;20193;-50
2023/11/10 08:27:51;;;;;;;0.00;0.00;;;21.10;45.30;;;;;;5010296;28;20195;-46
2023/11/10 08:30:24;;;;;;;0.10;0.10;;;21.10;45.30;;;;;;5009311;28;20196;-52
2023/11/10 08:32:54;;;;;;;0.00;0.00;;;21.10;45.30;;;;;;5010169;28;20594;-53
2023/11/10 08:35:25;;;;;;;0.10;0.10;;;21.10;45.30;;;;;;5012103;28;20678;-52
2023/11/10 08:37:56;;;;;;;0.10;0.10;;;21.10;45.40;;;;;;5017448;28;20188;-48
2023/11/10 08:40:26;;;;;;;0.03;0.03;;;21.00;45.30;;;;;;5012686;28;20758;-50
2023/11/10 08:42:57;;;;;;;0.10;0.10;;;21.00;45.30;;;;;;5011049;28;20627;-50
2023/11/10 08:45:29;;;;;;;0.00;0.00;;;21.00;45.30;;;;;;5010257;28;20602;-47
2023/11/10 08:48:00;;;;;;;0.10;0.10;;;21.00;45.30;;;;;;5008438;28;20211;-49
2023/11/10 08:50:31;;;;;;;0.00;0.00;;;21.00;45.40;;;;;;5010102;28;20200;-48
2023/11/10 08:53:02;;;;;;;0.00;0.00;;;21.00;45.80;;;;;;5005860;28;20319;-51
2023/11/10 08:55:32;;;;;;;0.03;0.03;;;20.90;46.00;;;;;;5009952;28;20216;-51
2023/11/10 08:58:03;;;;;;;0.00;0.00;;;20.90;46.10;;;;;;5009002;28;20208;-51
2023/11/10 09:00:36;;;;;;;0.00;0.00;;;20.90;46.20;;;;;;5009423;28;20211;-52
2023/11/10 09:03:07;;;;;;;0.10;0.10;;;20.90;46.20;;;;;;5009782;28;20200;-53
2023/11/10 09:05:37;;;;;;;0.00;0.00;;;20.90;46.20;;;;;;5009489;28;20625;-53
2023/11/10 09:08:08;;;;;;;0.00;0.00;;;20.90;46.20;;;;;;5009447;28;20193;-53
2023/11/10 09:10:39;;;;;;;0.03;0.03;;;20.90;46.30;;;;;;5010550;28;20196;-53
2023/11/10 09:13:09;;;;;;;0.00;0.00;;;20.80;46.30;;;;;;5008922;28;20303;-55
2023/11/10 09:15:43;;;;;;;0.00;0.00;;;20.80;46.30;;;;;;5009310;28;20634;-53
2023/11/10 09:18:13;;;;;;;0.00;0.00;;;20.80;46.30;;;;;;5009154;28;20294;-54
2023/11/10 09:20:44;;;;;;;0.10;0.10;;;20.80;46.40;;;;;;5009754;28;20205;-52
2023/11/10 09:23:15;;;;;;;0.00;0.00;;;20.80;46.40;;;;;;5009338;28;20523;-50
2023/11/10 09:25:45;;;;;;;0.10;0.10;;;20.80;46.50;;;;;;5009367;28;20731;-48
2023/11/10 09:28:17;;;;;;;0.00;0.00;;;20.70;46.40;;;;;;5004869;28;20205;-52
2023/11/10 09:30:51;;;;;;;0.10;0.10;;;20.70;46.50;;;;;;5009450;28;20197;-52
2023/11/10 09:33:21;;;;;;;0.00;0.00;;;20.70;46.50;;;;;;5009605;28;20233;-53
2023/11/10 09:35:52;;;;;;;0.00;0.00;;;20.70;46.50;;;;;;5020517;28;20291;-52
2023/11/10 09:38:23;;;;;;;0.00;0.00;;;20.70;46.50;;;;;;5013344;28;20641;-50
2023/11/10 09:40:58;;;;;;;0.00;0.00;;;20.60;46.50;;;;;;5018648;28;20203;-51
2023/11/10 09:43:29;;;;;;;0.00;0.00;;;20.60;46.50;;;;;;5012875;28;20592;-52
2023/11/10 09:46:05;;;;;;;0.05;0.05;;;20.60;46.60;;;;;;5012645;28;20224;-52
2023/11/10 09:48:36;;;;;;;0.00;0.00;;;20.60;46.60;;;;;;5015863;28;20199;-52
2023/11/10 09:51:07;;;;;;;0.00;0.00;;;20.50;46.60;;;;;;5014329;28;20556;-53
2023/11/10 09:53:39;;;;;;;0.10;0.10;;;20.50;46.60;;;;;;5006588;28;20591;-52
2023/11/10 09:56:10;;;;;;;0.10;0.10;;;20.50;46.70;;;;;;5021511;28;20236;-48
2023/11/10 09:58:44;;;;;;;0.00;0.00;;;20.50;46.90;;;;;;5011442;28;20212;-51
2023/11/10 10:01:18;;;;;;;0.00;0.00;;;20.40;46.90;;;;;;5012343;28;20291;-51
2023/11/10 10:03:49;;;;;;;0.00;0.00;;;20.40;47.00;;;;;;5013292;28;20226;-52
2023/11/10 10:06:22;;;;;;;0.00;0.00;;;20.40;47.00;;;;;;5014904;28;20703;-48
2023/11/10 10:08:55;;;;;;;0.00;0.00;;;20.30;46.90;;;;;;5014632;28;20201;-54
2023/11/10 10:11:26;;;;;;;0.00;0.00;;;20.40;46.90;;;;;;5014626;28;20258;-54
2023/11/10 10:13:57;;;;;;;0.00;0.00;;;20.30;46.90;;;;;;5014336;28;20228;-55
2023/11/10 10:16:29;;;;;;;0.00;0.00;;;20.30;46.90;;;;;;5014571;28;20626;-54
2023/11/10 10:19:02;;;;;;;0.00;0.00;;;20.30;46.90;;;;;;5014590;28;20208;-52
2023/11/10 10:21:45;;;;;;;0.00;0.00;;;20.30;46.90;;;;;;5014593;28;20576;-55
2023/11/10 10:24:16;;;;;;;0.00;0.00;;;20.20;46.90;;;;;;5014259;28;20201;-51
2023/11/10 10:26:47;;;;;;;0.00;0.00;;;20.20;46.90;;;;;;5013958;28;20224;-52
2023/11/10 10:29:18;;;;;;;0.00;0.00;;;20.20;46.90;;;;;;5014089;28;20650;-50
2023/11/10 10:31:52;;;;;;;0.10;0.10;;;20.20;46.90;;;;;;5014050;28;20306;-50
2023/11/10 10:34:22;;;;;;;0.00;0.00;;;20.10;46.80;;;;;;5014025;28;20693;-53
2023/11/10 10:36:55;;;;;;;0.00;0.00;;;20.10;46.80;;;;;;5013817;28;20225;-53
2023/11/10 10:39:29;;;;;;;0.00;0.00;;;20.10;46.90;;;;;;5013614;28;20208;-50
2023/11/10 10:42:03;;;;;;;0.00;0.00;;;20.10;46.80;;;;;;5018950;28;20648;-46
2023/11/10 10:44:35;;;;;;;0.00;0.00;;;20.00;46.80;;;;;;5033574;28;20232;-49
2023/11/10 10:47:09;;;;;;;0.00;0.00;;;20.00;46.80;;;;;;5032282;28;20220;-56
2023/11/10 10:49:41;;;;;;;0.00;0.00;;;20.00;46.80;;;;;;5033009;28;20559;-48
2023/11/10 10:52:12;;;;;;;0.00;0.00;;;20.00;46.80;;;;;;5033822;28;20196;-52
2023/11/10 10:54:44;;;;;;;0.10;0.10;;;20.00;46.80;;;;;;5027103;28;20224;-52
2023/11/10 10:57:17;;;;;;;0.00;0.00;;;19.90;46.80;;;;;;5013323;28;20212;-48
2023/11/10 10:59:48;;;;;;;0.00;0.00;;;19.90;47.40;;;;;;5010335;28;20284;-46
2023/11/10 11:02:22;;;;;;;0.10;0.10;;;19.80;46.80;;;;;;5012818;28;20634;-51
2023/11/10 11:04:55;;;;;;;0.00;0.00;;;19.80;46.70;;;;;;5011007;28;20203;-48
2023/11/10 11:07:47;;;;;;;0.00;0.00;;;19.80;46.70;;;;;;5012936;28;20263;-48
2023/11/10 11:10:41;;;;;;;0.05;0.05;;;19.80;46.80;;;;;;5009848;28;20251;-52
2023/11/10 11:13:43;;;;;;;0.00;0.00;;;19.80;46.70;;;;;;5010963;28;20224;-53
2023/11/10 11:16:30;;;;;;;0.00;0.00;;;19.70;46.70;;;;;;5007833;28;20208;-54
2023/11/10 11:19:21;;;;;;;0.08;0.08;;;19.70;46.70;;;;;;5006659;28;20193;-55
2023/11/10 11:21:52;;;;;;;0.08;0.08;;;19.70;46.80;;;;;;5010568;28;20669;-50
2023/11/10 11:24:24;;;;;;;0.10;0.10;;;19.60;46.70;;;;;;5012445;28;20193;-53
2023/11/10 11:27:02;;;;;;;0.00;0.00;;;19.60;46.70;;;;;;5012469;28;20220;-53
2023/11/10 11:29:39;;;;;;;0.03;0.03;;;19.60;46.80;;;;;;5010135;28;20193;-56
2023/11/10 11:32:19;;;;;;;0.00;0.00;;;19.50;46.80;;;;;;5012699;28;20242;-54
2023/11/10 11:34:58;;;;;;;0.00;0.00;;;19.50;46.70;;;;;;5009691;28;20224;-54
2023/11/10 11:37:33;;;;;;;0.03;0.03;;;19.50;46.70;;;;;;5011075;28;20568;-53
2023/11/10 11:40:05;;;;;;;0.00;0.00;;;19.50;46.80;;;;;;5014987;28;20181;-55
2023/11/10 11:42:40;;;;;;;0.05;0.05;;;19.50;46.80;;;;;;5012392;28;20189;-54
2023/11/10 11:45:20;;;;;;;0.10;0.10;;;19.40;46.70;;;;;;5009723;28;20231;-54
2023/11/10 11:47:54;;;;;;;0.00;0.00;;;19.40;46.70;;;;;;5014654;28;20213;-54
2023/11/10 11:50:26;;;;;;;0.10;0.10;;;19.40;46.70;;;;;;5011963;28;20276;-53
2023/11/10 11:52:58;;;;;;;0.10;0.10;;;19.40;46.70;;;;;;5011940;28;20192;-53
2023/11/10 11:55:34;;;;;;;0.00;0.00;;;19.30;46.70;;;;;;5009670;28;20309;-55
2023/11/10 11:58:05;;;;;;;0.10;0.10;;;19.30;46.60;;;;;;5011467;28;20212;-55
2023/11/10 12:00:36;;;;;;;0.00;0.00;;;19.30;46.70;;;;;;5012024;28;20201;-52
2023/11/10 12:03:08;;;;;;;0.00;0.00;;;19.30;46.70;;;;;;5011841;28;20715;-51
2023/11/10 12:05:40;;;;;;;0.00;0.00;;;19.30;46.70;;;;;;5011739;28;20197;-52
2023/11/10 12:08:11;;;;;;;0.10;0.10;;;19.20;46.70;;;;;;5011925;28;20209;-52
2023/11/10 12:10:42;;;;;;;0.00;0.00;;;19.20;46.70;;;;;;5011730;28;20193;-51
2023/11/10 12:13:14;;;;;;;0.00;0.00;;;19.20;46.70;;;;;;5011698;28;20196;-55
2023/11/10 12:15:46;;;;;;;0.10;0.10;;;19.20;46.70;;;;;;5011380;28;20626;-51
2023/11/10 12:18:18;;;;;;;0.10;0.10;;;19.20;46.70;;;;;;5011848;28;20283;-47
2023/11/10 12:20:51;;;;;;;0.00;0.00;;;19.10;46.70;;;;;;5011973;28;20204;-47
2023/11/10 12:23:21;;;;;;;0.00;0.00;;;19.10;46.70;;;;;;5012041;28;20542;-54
2023/11/10 12:25:53;;;;;;;0.03;0.03;;;19.10;46.70;;;;;;5012065;28;20222;-54
2023/11/10 12:28:24;;;;;;;0.00;0.00;;;19.10;46.80;;;;;;5011888;28;20672;-46
2023/11/10 12:30:54;;;;;;;0.00;0.00;;;19.10;46.70;;;;;;5011686;28;20287;-52
2023/11/10 12:33:25;;;;;;;0.10;0.10;;;19.00;46.80;;;;;;5011751;28;20196;-53
2023/11/10 12:35:58;;;;;;;0.00;0.00;;;19.00;46.70;;;;;;5011981;28;20590;-53
2023/11/10 12:38:28;;;;;;;0.10;0.10;;;19.00;46.80;;;;;;5011779;28;20200;-51
2023/11/10 12:40:59;;;;;;;0.08;0.08;;;19.00;47.30;;;;;;5011931;28;20658;-54
2023/11/10 12:43:30;;;;;;;0.00;0.00;;;18.90;46.70;;;;;;5011583;28;20204;-50
2023/11/10 12:46:10;;;;;;;0.00;0.00;;;18.90;46.70;;;;;;5010964;28;20213;-55
2023/11/10 12:48:43;;;;;;;0.00;0.00;;;18.90;46.70;;;;;;5011396;28;20297;-49
2023/11/10 12:51:15;;;;;;;0.10;0.10;;;18.90;46.70;;;;;;5012930;28;20200;-51
2023/11/10 12:53:46;;;;;;;0.10;0.10;;;18.80;46.70;;;;;;5028936;28;20222;-53
2023/11/10 12:56:17;;;;;;;0.00;0.00;;;18.80;46.80;;;;;;5031903;28;20239;-52
2023/11/10 12:58:47;;;;;;;0.10;0.10;;;18.80;46.80;;;;;;5031389;28;20200;-46
2023/11/10 13:01:18;;;;;;;0.10;0.10;;;18.80;46.80;;;;;;5031262;28;20246;-55
2023/11/10 13:03:49;;;;;;;0.00;0.00;;;18.80;46.80;;;;;;5031842;28;20204;-54
2023/11/10 13:06:21;;;;;;;0.10;0.10;;;18.70;46.70;;;;;;5031476;28;20216;-56
2023/11/10 13:08:52;;;;;;;0.00;0.00;;;18.70;46.80;;;;;;5032119;28;20191;-52
2023/11/10 13:11:22;;;;;;;0.10;0.10;;;18.70;46.80;;;;;;5027585;28;20680;-52